Time;durP1;ratioP1;P1;durP2;ratioP2;P2;SDS_P1;SDS_P2;PMS_P1;PMS_P2;Temp;Humidity;BMP_temperature;BMP_pressure;BME280_temperature;BME280_humidity;BME280_pressure;Samples;Min_cycle;Max_cycle;Signal;HPM_P1;HPM_P2
2023/10/05 00:11:29;;;;;;;2.10;1.90;;;;;;;;;;6197241;22;20425;-93
2023/10/05 00:45:31;;;;;;;1.90;1.23;;;;;;;;;;6257255;22;20504;-94
2023/10/05 00:48:13;;;;;;;1.67;1.57;;;;;;;;;;6246380;22;20478;-95
2023/10/05 00:51:09;;;;;;;1.83;1.73;;;;;;;;;;6237468;23;20559;-94
2023/10/05 00:53:41;;;;;;;3.57;1.77;;;;;;;;;;6166471;23;20387;-94
2023/10/05 01:22:16;;;;;;;2.60;1.73;;;;;;;;;;6215571;23;20398;-95
2023/10/05 02:19:19;;;;;;;3.10;1.50;;;;;;;;;;6252016;22;20434;-94
2023/10/05 02:21:54;;;;;;;2.63;1.27;;;;;;;;;;6238883;23;20378;-93
2023/10/05 02:24:29;;;;;;;1.73;1.57;;;;;;;;;;6214457;23;20387;-96
2023/10/05 02:27:09;;;;;;;3.40;1.80;;;;;;;;;;6213253;23;20422;-95
2023/10/05 02:29:49;;;;;;;3.23;1.67;;;;;;;;;;6193803;23;20387;-92
2023/10/05 02:32:27;;;;;;;2.13;1.60;;;;;;;;;;6238534;23;20360;-93
2023/10/05 03:24:24;;;;;;;4.50;2.27;;;;;;;;;;6256576;22;20410;-92
2023/10/05 03:26:55;;;;;;;2.03;1.70;;;;;;;;;;6215290;23;20433;-94
2023/10/05 03:29:24;;;;;;;3.90;1.70;;;;;;;;;;6236133;23;20454;-93
2023/10/05 04:39:37;;;;;;;4.30;2.37;;;;;;;;;;6224570;22;20433;-94
2023/10/05 04:42:37;;;;;;;;;;;;;;;;;;;;;
2023/10/05 04:45:11;;;;;;;2.10;1.53;;;;;;;;;;6234706;23;20394;-94
2023/10/05 04:47:38;;;;;;;5.10;2.57;;;;;;;;;;6212442;23;20448;-93
2023/10/05 04:50:05;;;;;;;2.80;1.63;;;;;;;;;;6211218;23;20395;-95
2023/10/05 04:55:31;;;;;;;2.57;2.10;;;;;;;;;;6241661;22;20418;-94
2023/10/05 04:58:15;;;;;;;2.73;1.73;;;;;;;;;;6216669;23;20387;-95
2023/10/05 05:16:43;;;;;;;2.47;1.97;;;;;;;;;;6210513;22;20441;-93
2023/10/05 05:21:57;;;;;;;5.90;2.03;;;;;;;;;;6215271;22;20422;-94
2023/10/05 05:25:06;;;;;;;2.67;2.03;;;;;;;;;;6242106;22;20393;-95
2023/10/05 05:30:19;;;;;;;2.87;1.90;;;;;;;;;;6257960;22;20447;-95
2023/10/05 05:32:46;;;;;;;2.70;1.40;;;;;;;;;;6171811;22;20389;-96
2023/10/05 05:40:28;;;;;;;4.77;1.77;;;;;;;;;;6243822;22;20421;-95
2023/10/05 05:42:57;;;;;;;2.50;2.00;;;;;;;;;;6204627;23;20359;-94
2023/10/05 05:45:23;;;;;;;3.47;2.50;;;;;;;;;;6230595;23;20402;-94
2023/10/05 05:47:51;;;;;;;3.47;1.77;;;;;;;;;;6207082;23;21073;-95
2023/10/05 05:58:05;;;;;;;6.13;2.40;;;;;;;;;;6222663;22;20419;-96
2023/10/05 06:00:31;;;;;;;5.60;2.90;;;;;;;;;;6185038;23;20401;-94
2023/10/05 06:02:58;;;;;;;3.50;2.40;;;;;;;;;;6181628;23;20383;-95
2023/10/05 06:05:26;;;;;;;6.83;2.47;;;;;;;;;;6187818;23;20698;-96
2023/10/05 06:07:55;;;;;;;9.37;2.73;;;;;;;;;;6149011;23;20417;-96
2023/10/05 06:10:28;;;;;;;8.27;2.97;;;;;;;;;;6128672;23;20729;-95
2023/10/05 06:12:58;;;;;;;6.50;3.83;;;;;;;;;;6131809;23;20381;-95
2023/10/05 06:15:25;;;;;;;17.00;4.57;;;;;;;;;;6154257;23;20400;-96
2023/10/05 06:18:03;;;;;;;10.70;2.70;;;;;;;;;;6129690;23;20934;-96
2023/10/05 06:20:38;;;;;;;3.70;1.93;;;;;;;;;;6153233;23;20405;-96
2023/10/05 06:23:05;;;;;;;6.67;2.00;;;;;;;;;;6118235;23;20785;-96
2023/10/05 06:28:08;;;;;;;3.53;1.97;;;;;;;;;;6234670;22;21113;-96
2023/10/05 06:30:35;;;;;;;2.63;1.83;;;;;;;;;;6212137;23;20390;-96
2023/10/05 06:33:01;;;;;;;4.90;2.33;;;;;;;;;;6212333;23;21217;-95
2023/10/05 06:35:29;;;;;;;3.83;2.57;;;;;;;;;;6218498;23;20394;-96
2023/10/05 06:37:55;;;;;;;6.00;1.93;;;;;;;;;;6218983;23;20425;-94
2023/10/05 06:40:21;;;;;;;3.10;1.57;;;;;;;;;;6220731;23;20396;-95
2023/10/05 06:42:51;;;;;;;4.80;2.13;;;;;;;;;;6244765;22;20386;-93
2023/10/05 06:45:23;;;;;;;3.77;2.57;;;;;;;;;;6219415;23;20398;-94
2023/10/05 06:47:50;;;;;;;8.20;2.40;;;;;;;;;;6220898;23;20483;-93
2023/10/05 06:50:18;;;;;;;2.00;1.57;;;;;;;;;;6218427;23;20540;-93
2023/10/05 06:52:44;;;;;;;3.80;2.27;;;;;;;;;;6244837;23;20390;-92
2023/10/05 06:55:13;;;;;;;3.97;2.43;;;;;;;;;;6217203;23;20401;-93
2023/10/05 07:00:21;;;;;;;2.97;2.40;;;;;;;;;;6257214;22;20417;-95
2023/10/05 07:02:48;;;;;;;5.73;2.27;;;;;;;;;;6215793;23;20371;-94
2023/10/05 07:05:14;;;;;;;2.50;2.00;;;;;;;;;;6211210;23;20453;-93
2023/10/05 07:07:43;;;;;;;4.33;2.10;;;;;;;;;;6213090;23;20459;-96
2023/10/05 07:10:13;;;;;;;3.57;1.53;;;;;;;;;;6213262;23;20452;-94
2023/10/05 07:12:44;;;;;;;5.73;2.27;;;;;;;;;;6239125;23;20379;-95
2023/10/05 07:15:10;;;;;;;1.97;1.77;;;;;;;;;;6211749;23;20387;-92
2023/10/05 07:17:37;;;;;;;2.73;1.57;;;;;;;;;;6150114;23;20393;-93
2023/10/05 07:20:04;;;;;;;3.97;1.67;;;;;;;;;;6200580;23;20412;-95
2023/10/05 07:22:30;;;;;;;2.20;1.87;;;;;;;;;;6173281;23;20441;-94
2023/10/05 07:24:57;;;;;;;3.47;2.47;;;;;;;;;;6174675;23;20385;-93
2023/10/05 07:27:30;;;;;;;3.00;2.33;;;;;;;;;;6176377;23;20491;-95
2023/10/05 07:30:04;;;;;;;2.87;1.90;;;;;;;;;;6104713;23;20381;-92
2023/10/05 07:32:31;;;;;;;3.03;2.20;;;;;;;;;;6170296;23;20472;-94
2023/10/05 07:34:57;;;;;;;3.30;1.67;;;;;;;;;;6169596;23;20405;-95
2023/10/05 07:37:24;;;;;;;4.40;2.07;;;;;;;;;;6196004;23;20389;-95
2023/10/05 07:39:51;;;;;;;3.10;2.20;;;;;;;;;;6166947;23;20523;-94
2023/10/05 07:42:17;;;;;;;3.50;2.10;;;;;;;;;;6171239;23;20369;-94
2023/10/05 07:44:43;;;;;;;5.17;2.00;;;;;;;;;;6168578;23;20440;-95
2023/10/05 07:47:11;;;;;;;2.93;2.63;;;;;;;;;;6164605;23;20479;-95
2023/10/05 07:49:37;;;;;;;4.03;1.90;;;;;;;;;;6201825;23;20399;-95
2023/10/05 07:52:07;;;;;;;3.37;1.87;;;;;;;;;;6200378;23;20391;-95
2023/10/05 07:54:35;;;;;;;3.73;1.77;;;;;;;;;;6201908;23;20379;-94
2023/10/05 07:57:02;;;;;;;3.90;1.80;;;;;;;;;;6200520;23;20398;-96
2023/10/05 07:59:31;;;;;;;3.10;2.10;;;;;;;;;;6204192;23;20363;-93
2023/10/05 08:04:33;;;;;;;3.50;1.80;;;;;;;;;;6208850;22;20442;-95
2023/10/05 08:06:59;;;;;;;3.27;1.80;;;;;;;;;;6200016;23;20802;-96
2023/10/05 08:09:27;;;;;;;5.67;2.73;;;;;;;;;;6202374;23;20434;-93
2023/10/05 08:11:53;;;;;;;4.23;2.23;;;;;;;;;;6201386;23;20765;-95
2023/10/05 08:14:20;;;;;;;4.73;2.20;;;;;;;;;;6203458;23;20375;-95
2023/10/05 08:16:46;;;;;;;7.53;2.07;;;;;;;;;;6203553;23;20399;-94
2023/10/05 08:19:12;;;;;;;5.13;2.10;;;;;;;;;;6201078;23;20402;-93
2023/10/05 08:21:40;;;;;;;5.40;2.30;;;;;;;;;;6201055;23;20885;-95
2023/10/05 08:24:07;;;;;;;6.87;2.03;;;;;;;;;;6201731;23;20375;-95
2023/10/05 08:26:33;;;;;;;3.90;1.87;;;;;;;;;;6171231;23;20411;-96
2023/10/05 08:28:59;;;;;;;4.90;2.50;;;;;;;;;;6173902;23;20390;-95
2023/10/05 08:31:25;;;;;;;3.23;1.70;;;;;;;;;;6173603;23;20391;-94
2023/10/05 08:36:27;;;;;;;3.77;2.20;;;;;;;;;;6201819;22;20913;-92
2023/10/05 08:38:56;;;;;;;12.60;2.13;;;;;;;;;;6176028;23;20387;-93
2023/10/05 08:41:25;;;;;;;5.53;2.33;;;;;;;;;;6176070;23;20391;-93
2023/10/05 08:43:54;;;;;;;4.10;2.20;;;;;;;;;;6205536;23;20366;-96
2023/10/05 08:46:23;;;;;;;3.80;2.20;;;;;;;;;;6202763;23;20418;-93
2023/10/05 08:48:49;;;;;;;8.10;3.30;;;;;;;;;;6177508;23;20368;-94
2023/10/05 08:51:19;;;;;;;9.47;3.47;;;;;;;;;;6176555;23;20478;-91
2023/10/05 08:53:59;;;;;;;5.80;2.63;;;;;;;;;;6175338;23;20391;-94
2023/10/05 08:56:31;;;;;;;4.30;2.40;;;;;;;;;;6181188;23;20452;-92
2023/10/05 08:59:02;;;;;;;5.67;3.07;;;;;;;;;;6199779;23;20401;-93
2023/10/05 09:01:35;;;;;;;5.77;3.07;;;;;;;;;;6200116;23;20383;-93
2023/10/05 09:04:11;;;;;;;13.60;2.80;;;;;;;;;;6182794;23;20886;-92
2023/10/05 09:06:52;;;;;;;16.73;3.00;;;;;;;;;;6175950;23;20414;-92
2023/10/05 09:09:28;;;;;;;8.30;3.33;;;;;;;;;;6199764;23;20470;-93
2023/10/05 09:11:57;;;;;;;4.20;2.93;;;;;;;;;;6175977;23;20598;-92
2023/10/05 09:14:35;;;;;;;5.87;3.10;;;;;;;;;;6141168;23;20389;-93
2023/10/05 09:17:07;;;;;;;4.53;2.80;;;;;;;;;;6117495;23;20428;-93
2023/10/05 09:19:33;;;;;;;11.60;3.23;;;;;;;;;;6118539;23;20781;-93
2023/10/05 09:24:28;;;;;;;8.73;3.17;;;;;;;;;;6138345;23;20403;-93
2023/10/05 09:27:16;;;;;;;8.80;2.90;;;;;;;;;;6115049;23;20514;-93
2023/10/05 09:29:42;;;;;;;5.63;2.93;;;;;;;;;;6119920;23;20404;-94
2023/10/05 09:32:22;;;;;;;7.50;3.20;;;;;;;;;;6112594;23;20388;-93
2023/10/05 09:34:51;;;;;;;5.67;3.07;;;;;;;;;;6122381;23;20401;-93
2023/10/05 09:37:17;;;;;;;13.10;3.07;;;;;;;;;;6117124;23;20388;-95
2023/10/05 09:39:44;;;;;;;10.27;3.10;;;;;;;;;;6117704;23;20513;-93
2023/10/05 09:42:28;;;;;;;5.90;2.80;;;;;;;;;;6115705;23;20466;-92
2023/10/05 09:44:57;;;;;;;7.83;3.20;;;;;;;;;;6132244;23;20392;-93
2023/10/05 09:47:25;;;;;;;7.10;2.80;;;;;;;;;;6167609;23;20738;-92
2023/10/05 09:50:01;;;;;;;10.20;3.40;;;;;;;;;;6195559;23;20415;-95
2023/10/05 09:55:26;;;;;;;5.40;3.37;;;;;;;;;;6192322;23;20384;-93
2023/10/05 09:57:53;;;;;;;5.60;2.80;;;;;;;;;;6171000;23;20376;-94
2023/10/05 10:00:30;;;;;;;9.13;3.27;;;;;;;;;;6196858;23;20376;-94
2023/10/05 10:03:00;;;;;;;6.00;3.37;;;;;;;;;;6141169;23;20748;-94
2023/10/05 10:05:35;;;;;;;7.43;2.60;;;;;;;;;;6148043;23;20719;-93
2023/10/05 10:13:13;;;;;;;5.43;2.40;;;;;;;;;;6208227;22;20426;-93
2023/10/05 10:15:39;;;;;;;5.83;3.20;;;;;;;;;;6183186;23;20762;-94
2023/10/05 10:18:14;;;;;;;7.17;3.67;;;;;;;;;;6181547;23;21034;-93
2023/10/05 10:20:45;;;;;;;6.83;3.13;;;;;;;;;;6183617;23;20393;-93
2023/10/05 10:23:21;;;;;;;10.27;4.60;;;;;;;;;;6210705;23;20367;-92
2023/10/05 10:25:51;;;;;;;7.70;3.87;;;;;;;;;;6185517;23;20383;-93
2023/10/05 10:36:18;;;;;;;6.80;3.00;;;;;;;;;;6201138;22;20410;-95
2023/10/05 10:38:52;;;;;;;7.70;3.17;;;;;;;;;;6241523;23;20454;-95
2023/10/05 10:41:23;;;;;;;8.73;3.30;;;;;;;;;;6211982;23;20442;-96
2023/10/05 10:43:52;;;;;;;6.83;2.63;;;;;;;;;;6214468;23;20452;-96
2023/10/05 10:46:28;;;;;;;6.73;3.33;;;;;;;;;;6208909;23;20391;-95
2023/10/05 10:48:59;;;;;;;8.40;3.47;;;;;;;;;;6232184;23;20352;-96
2023/10/05 10:51:31;;;;;;;9.70;2.90;;;;;;;;;;6202589;23;20379;-95
2023/10/05 10:54:01;;;;;;;5.50;2.67;;;;;;;;;;6203381;23;20387;-95
2023/10/05 10:56:45;;;;;;;;;;;;;;;;;;;;;
2023/10/05 10:59:26;;;;;;;7.90;2.70;;;;;;;;;;6147897;23;20428;-96
2023/10/05 11:01:59;;;;;;;5.40;2.63;;;;;;;;;;6145409;23;20411;-95
2023/10/05 11:04:36;;;;;;;4.20;2.40;;;;;;;;;;6145446;23;20376;-96
2023/10/05 11:07:07;;;;;;;3.60;1.97;;;;;;;;;;6142395;23;20420;-96
2023/10/05 11:09:37;;;;;;;4.57;2.30;;;;;;;;;;6145655;23;21085;-96
2023/10/05 11:12:28;;;;;;;6.70;3.30;;;;;;;;;;6148593;23;20465;-94
2023/10/05 11:15:08;;;;;;;7.40;2.67;;;;;;;;;;6169863;23;20453;-94
2023/10/05 11:17:35;;;;;;;5.50;2.80;;;;;;;;;;6141997;23;20369;-96
2023/10/05 11:20:17;;;;;;;5.00;2.30;;;;;;;;;;6144967;23;20384;-95
2023/10/05 11:23:03;;;;;;;7.00;2.90;;;;;;;;;;6153234;23;20413;-96
2023/10/05 11:25:32;;;;;;;4.10;2.90;;;;;;;;;;6141471;23;20396;-94
2023/10/05 11:27:59;;;;;;;5.93;2.00;;;;;;;;;;6146797;23;20405;-95
2023/10/05 11:30:26;;;;;;;3.97;1.37;;;;;;;;;;6202009;23;20409;-95
2023/10/05 11:32:56;;;;;;;8.20;2.67;;;;;;;;;;6202853;23;20391;-94
2023/10/05 11:35:28;;;;;;;5.57;2.43;;;;;;;;;;6201354;23;20398;-93
2023/10/05 11:37:58;;;;;;;7.10;2.17;;;;;;;;;;6203520;23;20449;-94
2023/10/05 11:40:30;;;;;;;5.60;2.50;;;;;;;;;;6200320;23;20403;-94
2023/10/05 11:42:56;;;;;;;7.27;3.20;;;;;;;;;;6204100;23;20379;-95
2023/10/05 11:45:30;;;;;;;3.63;2.30;;;;;;;;;;6201658;23;20394;-94
2023/10/05 11:53:18;;;;;;;6.80;3.00;;;;;;;;;;6259750;22;20501;-96
2023/10/05 11:55:52;;;;;;;6.27;3.20;;;;;;;;;;6237225;23;20450;-96
2023/10/05 11:58:26;;;;;;;7.10;2.10;;;;;;;;;;6236739;23;20391;-95
2023/10/05 12:01:03;;;;;;;5.77;2.57;;;;;;;;;;6238238;23;20410;-95
2023/10/05 12:03:34;;;;;;;5.60;2.50;;;;;;;;;;6175510;23;20400;-95
2023/10/05 12:06:08;;;;;;;5.70;2.20;;;;;;;;;;6104652;23;20408;-95
2023/10/05 12:08:34;;;;;;;7.23;2.77;;;;;;;;;;6126033;23;20416;-93
2023/10/05 12:11:00;;;;;;;3.50;2.67;;;;;;;;;;6117406;23;20388;-96
2023/10/05 12:13:29;;;;;;;7.43;2.43;;;;;;;;;;6116601;23;20393;-96
2023/10/05 12:15:58;;;;;;;4.50;2.10;;;;;;;;;;6119551;23;20378;-96
2023/10/05 12:18:24;;;;;;;5.80;2.77;;;;;;;;;;6122645;23;20377;-95
2023/10/05 12:20:50;;;;;;;5.90;2.30;;;;;;;;;;6115551;23;20853;-93
2023/10/05 12:23:19;;;;;;;4.10;2.60;;;;;;;;;;6116050;23;20384;-93
2023/10/05 12:25:45;;;;;;;5.60;2.80;;;;;;;;;;6116393;23;20373;-94
2023/10/05 12:28:12;;;;;;;4.17;2.37;;;;;;;;;;6117024;23;20587;-95
2023/10/05 12:30:44;;;;;;;3.97;2.40;;;;;;;;;;6172763;23;20856;-92
2023/10/05 12:33:11;;;;;;;4.73;2.53;;;;;;;;;;6170581;23;20376;-93
2023/10/05 12:35:38;;;;;;;5.70;4.07;;;;;;;;;;6201471;23;20432;-94
2023/10/05 12:38:06;;;;;;;3.80;2.43;;;;;;;;;;6201658;23;20379;-92
2023/10/05 12:40:35;;;;;;;6.40;2.90;;;;;;;;;;6202297;23;20410;-94
2023/10/05 12:43:03;;;;;;;4.70;2.47;;;;;;;;;;6199797;23;20359;-94
2023/10/05 12:45:29;;;;;;;5.40;2.40;;;;;;;;;;6200839;23;20425;-95
2023/10/05 12:47:55;;;;;;;7.60;2.50;;;;;;;;;;6196876;23;20427;-94
2023/10/05 12:50:26;;;;;;;5.90;2.20;;;;;;;;;;6205949;23;20398;-92
2023/10/05 12:52:52;;;;;;;4.60;2.40;;;;;;;;;;6198555;23;20429;-94
2023/10/05 12:55:26;;;;;;;3.67;2.00;;;;;;;;;;6199892;23;20379;-94
2023/10/05 12:57:53;;;;;;;9.27;3.60;;;;;;;;;;6225012;23;20355;-92
2023/10/05 13:00:19;;;;;;;11.43;2.97;;;;;;;;;;6202054;23;20440;-93
2023/10/05 13:02:52;;;;;;;3.83;2.20;;;;;;;;;;6201082;23;20459;-93
2023/10/05 13:05:21;;;;;;;4.40;2.60;;;;;;;;;;6203221;23;20371;-93
2023/10/05 13:07:47;;;;;;;8.80;2.80;;;;;;;;;;6200593;23;20424;-94
2023/10/05 13:10:21;;;;;;;9.23;3.00;;;;;;;;;;6203328;23;20471;-94
2023/10/05 13:12:51;;;;;;;5.80;2.30;;;;;;;;;;6203377;23;20370;-93
2023/10/05 13:15:19;;;;;;;8.77;3.10;;;;;;;;;;6203978;23;20462;-94
2023/10/05 13:17:46;;;;;;;5.60;2.17;;;;;;;;;;6202916;23;20413;-93
2023/10/05 13:20:24;;;;;;;3.30;2.33;;;;;;;;;;6201461;23;20387;-94
2023/10/05 13:22:56;;;;;;;8.80;3.20;;;;;;;;;;6209113;23;20678;-95
2023/10/05 13:25:25;;;;;;;5.43;2.30;;;;;;;;;;6201043;23;20402;-94
2023/10/05 13:27:52;;;;;;;5.60;2.47;;;;;;;;;;6199600;23;20426;-94
2023/10/05 13:30:27;;;;;;;4.67;2.07;;;;;;;;;;6199922;23;20382;-93
2023/10/05 13:32:57;;;;;;;6.73;2.60;;;;;;;;;;6201987;23;20838;-93
2023/10/05 13:35:24;;;;;;;3.63;2.03;;;;;;;;;;6199415;23;20450;-93
2023/10/05 13:37:54;;;;;;;8.67;2.30;;;;;;;;;;6200954;23;20364;-95
2023/10/05 13:40:24;;;;;;;4.23;1.80;;;;;;;;;;6202592;23;20383;-95
2023/10/05 13:42:52;;;;;;;7.30;2.70;;;;;;;;;;6205774;23;20393;-96
2023/10/05 13:45:20;;;;;;;4.23;2.63;;;;;;;;;;6204889;23;20390;-95
2023/10/05 13:47:47;;;;;;;13.47;2.90;;;;;;;;;;6203721;23;20434;-96
2023/10/05 13:50:15;;;;;;;6.80;3.80;;;;;;;;;;6204546;23;20391;-95
2023/10/05 13:52:45;;;;;;;3.50;2.13;;;;;;;;;;6204308;23;20405;-95
2023/10/05 13:55:15;;;;;;;9.60;2.50;;;;;;;;;;6205352;23;20398;-93
2023/10/05 13:57:40;;;;;;;7.60;3.00;;;;;;;;;;6236040;23;20458;-94
2023/10/05 14:00:17;;;;;;;8.30;2.50;;;;;;;;;;6205208;23;20383;-93
2023/10/05 14:02:49;;;;;;;5.07;2.23;;;;;;;;;;6208872;23;20370;-93
2023/10/05 14:05:16;;;;;;;7.10;2.73;;;;;;;;;;6229281;23;20466;-94
2023/10/05 14:07:44;;;;;;;5.63;2.13;;;;;;;;;;6205343;23;20499;-95
2023/10/05 14:10:10;;;;;;;3.30;1.70;;;;;;;;;;6203428;23;20390;-95
2023/10/05 14:12:39;;;;;;;5.33;2.80;;;;;;;;;;6204393;23;20438;-93
2023/10/05 14:15:08;;;;;;;5.70;2.63;;;;;;;;;;6205885;23;20866;-94
2023/10/05 14:17:35;;;;;;;6.90;3.10;;;;;;;;;;6210273;23;20379;-94
2023/10/05 14:20:04;;;;;;;4.20;2.00;;;;;;;;;;6237656;23;20384;-95
2023/10/05 14:22:34;;;;;;;5.90;2.40;;;;;;;;;;6212586;23;20382;-94
2023/10/05 14:25:07;;;;;;;6.57;2.77;;;;;;;;;;6209110;23;20368;-94
2023/10/05 14:27:36;;;;;;;7.27;2.33;;;;;;;;;;6209330;23;20466;-95
2023/10/05 14:30:06;;;;;;;7.07;2.70;;;;;;;;;;6206692;23;20395;-96
2023/10/05 14:32:36;;;;;;;6.10;2.90;;;;;;;;;;6232901;23;20379;-95
2023/10/05 14:35:15;;;;;;;10.23;3.00;;;;;;;;;;6207230;23;20377;-94
2023/10/05 14:37:44;;;;;;;6.60;2.73;;;;;;;;;;6235074;23;20363;-94
2023/10/05 14:48:04;;;;;;;7.37;3.07;;;;;;;;;;6236258;22;20447;-94
2023/10/05 15:03:29;;;;;;;7.23;2.83;;;;;;;;;;6240392;22;20426;-95
2023/10/05 15:06:04;;;;;;;3.90;2.23;;;;;;;;;;6186838;23;20421;-96
2023/10/05 15:08:30;;;;;;;6.87;2.20;;;;;;;;;;6212006;23;20497;-95
2023/10/05 15:11:00;;;;;;;4.40;2.03;;;;;;;;;;6183874;23;20391;-95
2023/10/05 15:13:26;;;;;;;4.37;1.90;;;;;;;;;;6185100;23;20490;-95
2023/10/05 15:15:52;;;;;;;5.73;2.73;;;;;;;;;;6148656;23;20393;-96
2023/10/05 15:18:22;;;;;;;6.23;2.40;;;;;;;;;;6123901;23;20748;-96
2023/10/05 15:23:27;;;;;;;4.57;2.50;;;;;;;;;;6181690;22;20938;-96
2023/10/05 15:25:56;;;;;;;8.67;3.30;;;;;;;;;;6211176;23;20402;-94
2023/10/05 15:28:24;;;;;;;9.30;3.07;;;;;;;;;;6206781;23;20419;-95
2023/10/05 15:30:50;;;;;;;6.30;2.10;;;;;;;;;;6207802;23;20458;-95
2023/10/05 15:33:17;;;;;;;6.00;2.83;;;;;;;;;;6231538;23;20402;-94
2023/10/05 15:35:43;;;;;;;4.60;2.23;;;;;;;;;;6206406;23;20393;-94
2023/10/05 15:38:09;;;;;;;12.83;3.77;;;;;;;;;;6199728;23;20471;-94
2023/10/05 16:00:49;;;;;;;5.60;2.17;;;;;;;;;;6299798;22;20456;-93
2023/10/05 16:05:52;;;;;;;5.80;2.23;;;;;;;;;;6296241;22;20444;-93
2023/10/05 16:08:24;;;;;;;7.47;3.57;;;;;;;;;;6252274;22;20376;-94
2023/10/05 16:10:50;;;;;;;5.83;2.13;;;;;;;;;;6271206;22;20422;-94
2023/10/05 16:13:18;;;;;;;5.60;2.77;;;;;;;;;;6249202;22;20385;-94
2023/10/05 16:15:44;;;;;;;4.47;2.73;;;;;;;;;;6243630;22;20397;-94
2023/10/05 16:18:11;;;;;;;6.60;3.10;;;;;;;;;;6245530;22;20484;-96
2023/10/05 16:20:37;;;;;;;9.70;3.20;;;;;;;;;;6244187;22;20400;-95
2023/10/05 16:23:05;;;;;;;9.07;2.83;;;;;;;;;;6243912;22;20451;-95
2023/10/05 16:25:31;;;;;;;8.63;3.07;;;;;;;;;;6244322;22;20712;-95
2023/10/05 16:27:58;;;;;;;4.37;2.33;;;;;;;;;;6245149;22;20377;-94
2023/10/05 16:30:24;;;;;;;7.50;3.17;;;;;;;;;;6247177;22;20423;-95
2023/10/05 16:32:57;;;;;;;6.50;2.77;;;;;;;;;;6271686;22;20380;-95
2023/10/05 16:35:23;;;;;;;7.20;3.07;;;;;;;;;;6180102;23;20409;-93
2023/10/05 16:38:00;;;;;;;8.10;2.60;;;;;;;;;;6181651;23;20395;-95
2023/10/05 16:40:28;;;;;;;4.20;2.40;;;;;;;;;;6181519;23;20393;-95
2023/10/05 16:42:56;;;;;;;7.73;2.93;;;;;;;;;;6179179;23;20441;-96
2023/10/05 16:45:22;;;;;;;5.27;2.97;;;;;;;;;;6180319;23;20403;-93
2023/10/05 16:47:51;;;;;;;6.63;2.80;;;;;;;;;;6178754;23;20384;-94
2023/10/05 16:50:23;;;;;;;5.47;3.07;;;;;;;;;;6131433;23;20372;-93
2023/10/05 16:52:50;;;;;;;4.10;2.37;;;;;;;;;;6179597;23;20367;-94
2023/10/05 16:55:19;;;;;;;4.87;3.17;;;;;;;;;;6173372;23;20403;-93
2023/10/05 16:57:45;;;;;;;7.03;3.03;;;;;;;;;;6171265;23;20390;-96
2023/10/05 17:00:26;;;;;;;3.67;2.20;;;;;;;;;;6172515;23;20390;-95
2023/10/05 17:03:02;;;;;;;7.17;2.90;;;;;;;;;;6175323;23;20413;-95
2023/10/05 17:05:28;;;;;;;6.83;2.83;;;;;;;;;;6188113;22;20432;-95
2023/10/05 17:07:59;;;;;;;4.73;2.50;;;;;;;;;;6237996;22;20365;-96
2023/10/05 17:10:25;;;;;;;11.63;3.03;;;;;;;;;;6264263;22;20354;-96
2023/10/05 17:12:56;;;;;;;5.17;2.20;;;;;;;;;;6234211;22;20385;-93
2023/10/05 17:15:25;;;;;;;4.13;2.60;;;;;;;;;;6260870;22;20929;-93
2023/10/05 17:17:56;;;;;;;9.03;2.70;;;;;;;;;;6232729;22;20698;-94
2023/10/05 17:20:22;;;;;;;5.07;2.57;;;;;;;;;;6232616;22;20369;-96
2023/10/05 17:22:49;;;;;;;5.27;2.57;;;;;;;;;;6235155;22;20528;-94
2023/10/05 17:25:16;;;;;;;6.93;2.90;;;;;;;;;;6236643;22;20487;-95
2023/10/05 17:27:42;;;;;;;6.23;3.27;;;;;;;;;;6236604;22;20488;-93
2023/10/05 17:30:13;;;;;;;8.10;2.47;;;;;;;;;;6261442;22;20385;-95
2023/10/05 17:32:45;;;;;;;7.90;3.10;;;;;;;;;;6235742;22;20404;-94
2023/10/05 17:35:11;;;;;;;3.33;2.50;;;;;;;;;;6238865;22;20476;-94
2023/10/05 17:37:37;;;;;;;6.00;2.77;;;;;;;;;;6232540;22;20677;-94
2023/10/05 17:40:04;;;;;;;7.33;3.50;;;;;;;;;;6235511;22;20564;-96
2023/10/05 17:42:35;;;;;;;5.73;3.27;;;;;;;;;;6233798;22;20385;-94
2023/10/05 17:45:02;;;;;;;6.70;3.23;;;;;;;;;;6262252;22;20338;-96
2023/10/05 17:47:29;;;;;;;18.40;4.07;;;;;;;;;;6260701;22;20361;-94
2023/10/05 17:49:59;;;;;;;7.77;2.90;;;;;;;;;;6243278;22;20373;-93
2023/10/05 17:52:29;;;;;;;7.27;2.63;;;;;;;;;;6236813;22;20397;-95
2023/10/05 17:54:56;;;;;;;4.90;2.80;;;;;;;;;;6243021;22;20393;-93
2023/10/05 17:57:23;;;;;;;3.40;2.30;;;;;;;;;;6237213;22;20388;-96
2023/10/05 17:59:49;;;;;;;4.17;2.40;;;;;;;;;;6238129;22;20381;-93
2023/10/05 18:02:18;;;;;;;8.87;2.77;;;;;;;;;;6240846;22;20841;-96
2023/10/05 18:04:44;;;;;;;5.37;2.93;;;;;;;;;;6237959;22;20394;-95
2023/10/05 18:07:10;;;;;;;5.10;3.20;;;;;;;;;;6236784;22;20393;-93
2023/10/05 18:09:43;;;;;;;6.43;2.80;;;;;;;;;;6268246;22;20366;-94
2023/10/05 18:12:12;;;;;;;4.40;2.87;;;;;;;;;;6235858;22;20408;-94
2023/10/05 18:14:41;;;;;;;5.60;3.60;;;;;;;;;;6259133;22;20464;-95
2023/10/05 18:17:10;;;;;;;8.40;3.30;;;;;;;;;;6236312;22;20440;-93
2023/10/05 18:19:42;;;;;;;5.77;2.80;;;;;;;;;;6240943;22;20382;-93
2023/10/05 18:22:08;;;;;;;5.27;2.40;;;;;;;;;;6234565;22;20360;-93
2023/10/05 18:24:34;;;;;;;7.80;3.07;;;;;;;;;;6176413;23;20613;-96
2023/10/05 18:27:00;;;;;;;5.13;3.40;;;;;;;;;;6175736;23;20410;-95
2023/10/05 18:29:26;;;;;;;7.73;2.90;;;;;;;;;;6177682;23;20446;-95
2023/10/05 18:31:52;;;;;;;6.20;2.97;;;;;;;;;;6177194;23;20387;-96
2023/10/05 18:34:19;;;;;;;5.23;3.20;;;;;;;;;;6174302;23;20392;-95
2023/10/05 18:36:47;;;;;;;6.97;3.60;;;;;;;;;;6174945;23;20379;-95
2023/10/05 18:39:16;;;;;;;4.50;3.10;;;;;;;;;;6182161;23;20409;-96
2023/10/05 18:41:46;;;;;;;8.20;3.90;;;;;;;;;;6178119;23;20396;-96
2023/10/05 18:44:12;;;;;;;8.20;3.43;;;;;;;;;;6179060;23;20428;-94
2023/10/05 18:46:39;;;;;;;4.17;2.73;;;;;;;;;;6176972;23;20372;-96
2023/10/05 18:49:09;;;;;;;7.13;3.73;;;;;;;;;;6203388;23;20372;-95
2023/10/05 18:51:45;;;;;;;4.77;2.40;;;;;;;;;;6203402;23;20364;-96
2023/10/05 18:54:16;;;;;;;7.00;3.30;;;;;;;;;;6178060;23;20408;-96
2023/10/05 18:56:42;;;;;;;3.93;2.93;;;;;;;;;;6197472;22;20401;-96
2023/10/05 19:01:46;;;;;;;3.33;2.77;;;;;;;;;;6292124;22;20425;-92
2023/10/05 19:04:14;;;;;;;7.67;4.00;;;;;;;;;;6243312;22;20433;-93
2023/10/05 19:06:41;;;;;;;8.47;4.17;;;;;;;;;;6271016;22;20373;-94
2023/10/05 19:09:09;;;;;;;9.80;3.70;;;;;;;;;;6245325;22;20412;-94
2023/10/05 19:11:43;;;;;;;5.27;3.20;;;;;;;;;;6248115;22;20378;-94
2023/10/05 19:14:13;;;;;;;6.60;3.90;;;;;;;;;;6202124;22;20389;-92
2023/10/05 19:16:43;;;;;;;7.40;3.57;;;;;;;;;;6270354;22;20369;-96
2023/10/05 19:19:14;;;;;;;4.93;2.90;;;;;;;;;;6238991;22;20361;-95
2023/10/05 19:21:49;;;;;;;5.90;2.60;;;;;;;;;;6266890;22;20350;-94
2023/10/05 19:24:33;;;;;;;5.07;2.70;;;;;;;;;;6291960;22;20417;-96
2023/10/05 19:27:00;;;;;;;6.40;3.00;;;;;;;;;;6238091;22;20901;-95
2023/10/05 19:29:26;;;;;;;5.70;3.13;;;;;;;;;;6172943;23;20379;-95
2023/10/05 19:31:52;;;;;;;6.50;3.20;;;;;;;;;;6169409;23;20447;-95
2023/10/05 19:34:18;;;;;;;6.20;3.50;;;;;;;;;;6168470;23;20388;-93
2023/10/05 19:36:44;;;;;;;7.10;3.20;;;;;;;;;;6169549;23;20395;-94
2023/10/05 19:39:10;;;;;;;4.60;3.17;;;;;;;;;;6170628;23;20427;-96
2023/10/05 19:41:37;;;;;;;4.57;2.67;;;;;;;;;;6171555;23;20391;-96
2023/10/05 19:44:04;;;;;;;5.03;2.73;;;;;;;;;;6170796;23;20447;-96
2023/10/05 19:46:30;;;;;;;3.80;2.50;;;;;;;;;;6169499;23;20391;-96
2023/10/05 19:48:57;;;;;;;7.40;2.83;;;;;;;;;;6172720;23;20388;-96
2023/10/05 19:51:23;;;;;;;3.67;2.97;;;;;;;;;;6170293;23;20384;-93
2023/10/05 19:53:50;;;;;;;7.20;3.70;;;;;;;;;;6178661;23;20430;-92
2023/10/05 19:56:17;;;;;;;6.57;3.07;;;;;;;;;;6169367;23;20431;-93
2023/10/05 19:58:44;;;;;;;8.90;3.97;;;;;;;;;;6170142;23;20443;-95
2023/10/05 20:01:11;;;;;;;7.13;3.43;;;;;;;;;;6224969;22;20412;-95
2023/10/05 20:03:37;;;;;;;7.27;3.33;;;;;;;;;;6237033;22;20445;-93
2023/10/05 20:06:06;;;;;;;6.80;3.20;;;;;;;;;;6235301;22;20446;-96
2023/10/05 20:08:33;;;;;;;5.47;3.40;;;;;;;;;;6235245;22;20397;-94
2023/10/05 20:10:59;;;;;;;4.47;2.83;;;;;;;;;;6234837;22;20382;-96
2023/10/05 20:13:28;;;;;;;9.93;3.17;;;;;;;;;;6233663;22;20734;-96
2023/10/05 20:15:59;;;;;;;10.80;3.63;;;;;;;;;;6237220;22;20369;-91
2023/10/05 20:18:25;;;;;;;5.20;2.90;;;;;;;;;;6238677;22;20385;-92
2023/10/05 20:20:51;;;;;;;6.00;3.10;;;;;;;;;;6231627;22;20385;-92
2023/10/05 20:23:28;;;;;;;6.87;4.00;;;;;;;;;;6235602;22;20409;-94
2023/10/05 20:25:54;;;;;;;8.40;3.67;;;;;;;;;;6260069;22;20399;-93
2023/10/05 20:28:21;;;;;;;4.67;3.10;;;;;;;;;;6232679;22;20373;-94
2023/10/05 20:30:50;;;;;;;7.37;2.87;;;;;;;;;;6237993;22;20381;-93
2023/10/05 20:33:21;;;;;;;7.30;3.80;;;;;;;;;;6239773;22;20370;-93
2023/10/05 20:35:47;;;;;;;5.30;2.73;;;;;;;;;;6238466;22;20364;-96
2023/10/05 20:38:14;;;;;;;13.57;3.57;;;;;;;;;;6238146;22;20400;-95
2023/10/05 20:40:47;;;;;;;6.97;3.50;;;;;;;;;;6265015;22;20389;-95
2023/10/05 20:43:15;;;;;;;6.83;3.73;;;;;;;;;;6237577;22;20427;-94
2023/10/05 20:45:41;;;;;;;6.90;3.73;;;;;;;;;;6263599;22;20742;-94
2023/10/05 20:48:08;;;;;;;9.20;3.77;;;;;;;;;;6234882;22;20400;-93
2023/10/05 20:50:35;;;;;;;9.00;3.80;;;;;;;;;;6237348;22;20369;-95
2023/10/05 20:53:01;;;;;;;11.87;4.10;;;;;;;;;;6239725;22;20382;-95
2023/10/05 20:55:29;;;;;;;7.87;4.37;;;;;;;;;;6267058;22;20353;-95
2023/10/05 20:57:56;;;;;;;9.43;3.43;;;;;;;;;;6167562;23;20516;-94